sensor_id;sensor_type;location;lat;lon;timestamp;pressure;altitude;pressure_sealevel;temperature;humidity
63535;BME280;55128;50.230;18.944;2023-04-28T00:01:18;98898.72;;;3.22;69.98
63535;BME280;55128;50.230;18.944;2023-04-28T00:06:19;98895.06;;;3.34;70.43
63535;BME280;55128;50.230;18.944;2023-04-28T00:11:19;98889.16;;;3.16;71.36
63535;BME280;55128;50.230;18.944;2023-04-28T00:16:20;98884.59;;;3.32;71.62
63535;BME280;55128;50.230;18.944;2023-04-28T00:21:21;98892.47;;;3.32;71.93
63535;BME280;55128;50.230;18.944;2023-04-28T00:26:21;98886.34;;;3.33;72.07
63535;BME280;55128;50.230;18.944;2023-04-28T00:31:22;98887.25;;;3.30;71.38
63535;BME280;55128;50.230;18.944;2023-04-28T00:36:22;98888.09;;;3.34;70.72
63535;BME280;55128;50.230;18.944;2023-04-28T00:41:22;98882.03;;;3.29;71.22
63535;BME280;55128;50.230;18.944;2023-04-28T00:46:28;98893.38;;;3.31;71.18
63535;BME280;55128;50.230;18.944;2023-04-28T00:51:29;98889.78;;;3.38;71.03
63535;BME280;55128;50.230;18.944;2023-04-28T00:56:30;98887.41;;;3.17;72.13
63535;BME280;55128;50.230;18.944;2023-04-28T01:01:30;98886.47;;;3.21;72.36
63535;BME280;55128;50.230;18.944;2023-04-28T01:06:32;98890.84;;;3.22;71.57
63535;BME280;55128;50.230;18.944;2023-04-28T01:11:33;98889.19;;;3.15;70.57
63535;BME280;55128;50.230;18.944;2023-04-28T01:16:34;98891.03;;;3.06;72.18
63535;BME280;55128;50.230;18.944;2023-04-28T01:21:35;98889.56;;;2.79;72.60
63535;BME280;55128;50.230;18.944;2023-04-28T01:26:35;98885.47;;;2.52;74.86
63535;BME280;55128;50.230;18.944;2023-04-28T01:31:35;98889.97;;;2.38;75.43
63535;BME280;55128;50.230;18.944;2023-04-28T01:36:36;98875.09;;;2.38;75.05
63535;BME280;55128;50.230;18.944;2023-04-28T01:41:36;98884.78;;;2.30;74.28
63535;BME280;55128;50.230;18.944;2023-04-28T01:46:36;98886.50;;;2.32;73.85
63535;BME280;55128;50.230;18.944;2023-04-28T01:51:37;98885.66;;;2.29;74.38
63535;BME280;55128;50.230;18.944;2023-04-28T01:56:37;98893.50;;;2.33;74.45
63535;BME280;55128;50.230;18.944;2023-04-28T02:01:37;98889.09;;;2.36;74.23
63535;BME280;55128;50.230;18.944;2023-04-28T02:06:38;98888.28;;;2.30;74.26
63535;BME280;55128;50.230;18.944;2023-04-28T02:11:38;98890.88;;;2.35;74.27
63535;BME280;55128;50.230;18.944;2023-04-28T02:16:38;98890.09;;;2.24;74.32
63535;BME280;55128;50.230;18.944;2023-04-28T02:21:40;98886.56;;;2.25;74.54
63535;BME280;55128;50.230;18.944;2023-04-28T02:26:41;98880.47;;;2.26;74.05
63535;BME280;55128;50.230;18.944;2023-04-28T02:31:41;98883.97;;;2.23;73.84
63535;BME280;55128;50.230;18.944;2023-04-28T02:36:41;98872.75;;;2.04;74.45
63535;BME280;55128;50.230;18.944;2023-04-28T02:41:42;98874.69;;;1.82;75.55
63535;BME280;55128;50.230;18.944;2023-04-28T02:46:42;98864.22;;;1.78;76.12
63535;BME280;55128;50.230;18.944;2023-04-28T02:51:43;98873.78;;;1.86;75.18
63535;BME280;55128;50.230;18.944;2023-04-28T02:56:43;98864.28;;;1.70;75.19
63535;BME280;55128;50.230;18.944;2023-04-28T03:01:43;98861.66;;;1.71;76.18
63535;BME280;55128;50.230;18.944;2023-04-28T03:06:43;98857.41;;;1.53;76.75
63535;BME280;55128;50.230;18.944;2023-04-28T03:11:44;98865.28;;;1.50;76.09
63535;BME280;55128;50.230;18.944;2023-04-28T03:16:44;98871.38;;;1.51;76.05
63535;BME280;55128;50.230;18.944;2023-04-28T03:21:45;98866.25;;;1.31;76.51
63535;BME280;55128;50.230;18.944;2023-04-28T03:26:46;98858.41;;;1.34;76.66
63535;BME280;55128;50.230;18.944;2023-04-28T03:31:47;98861.88;;;1.33;76.85
63535;BME280;55128;50.230;18.944;2023-04-28T03:36:47;98861.00;;;1.34;76.68
63535;BME280;55128;50.230;18.944;2023-04-28T03:41:47;98856.63;;;1.39;76.49
63535;BME280;55128;50.230;18.944;2023-04-28T03:46:48;98852.25;;;1.43;77.08
63535;BME280;55128;50.230;18.944;2023-04-28T03:51:49;98852.22;;;1.50;76.95
63535;BME280;55128;50.230;18.944;2023-04-28T03:56:50;98843.41;;;1.64;77.24
63535;BME280;55128;50.230;18.944;2023-04-28T04:01:50;98851.22;;;1.70;77.39
63535;BME280;55128;50.230;18.944;2023-04-28T04:06:51;98851.94;;;1.92;77.24
63535;BME280;55128;50.230;18.944;2023-04-28T04:11:51;98856.13;;;2.16;76.82
63535;BME280;55128;50.230;18.944;2023-04-28T04:16:52;98861.19;;;2.33;76.07
63535;BME280;55128;50.230;18.944;2023-04-28T04:21:52;98865.19;;;2.71;75.39
63535;BME280;55128;50.230;18.944;2023-04-28T04:26:52;98875.53;;;2.85;75.22
63535;BME280;55128;50.230;18.944;2023-04-28T04:31:53;98882.06;;;3.23;74.21
63535;BME280;55128;50.230;18.944;2023-04-28T04:36:53;98874.34;;;3.79;72.72
63535;BME280;55128;50.230;18.944;2023-04-28T04:41:53;98872.00;;;4.16;72.23
63535;BME280;55128;50.230;18.944;2023-04-28T04:46:54;98884.28;;;4.68;70.10
63535;BME280;55128;50.230;18.944;2023-04-28T04:51:55;98873.25;;;5.38;69.77
63535;BME280;55128;50.230;18.944;2023-04-28T04:56:55;98870.13;;;6.38;64.25
63535;BME280;55128;50.230;18.944;2023-04-28T05:01:55;98882.28;;;7.73;60.35
63535;BME280;55128;50.230;18.944;2023-04-28T05:06:56;98871.66;;;9.08;58.71
63535;BME280;55128;50.230;18.944;2023-04-28T05:11:56;98864.34;;;10.30;53.90
63535;BME280;55128;50.230;18.944;2023-04-28T05:16:57;98881.41;;;10.02;50.27
63535;BME280;55128;50.230;18.944;2023-04-28T05:21:57;98883.75;;;9.41;51.92
63535;BME280;55128;50.230;18.944;2023-04-28T05:26:58;98879.66;;;9.56;51.34
63535;BME280;55128;50.230;18.944;2023-04-28T05:31:59;98877.84;;;9.32;51.27
63535;BME280;55128;50.230;18.944;2023-04-28T05:36:59;98880.75;;;9.26;51.79
63535;BME280;55128;50.230;18.944;2023-04-28T05:42:00;98884.72;;;9.62;51.38
63535;BME280;55128;50.230;18.944;2023-04-28T05:47:00;98878.03;;;9.51;51.34
63535;BME280;55128;50.230;18.944;2023-04-28T05:52:00;98877.75;;;9.36;50.46
63535;BME280;55128;50.230;18.944;2023-04-28T05:57:01;98884.56;;;9.43;49.77
63535;BME280;55128;50.230;18.944;2023-04-28T06:02:01;98881.34;;;9.58;49.29
63535;BME280;55128;50.230;18.944;2023-04-28T06:07:02;98877.41;;;9.68;49.46
63535;BME280;55128;50.230;18.944;2023-04-28T06:12:02;98881.72;;;10.17;48.94
63535;BME280;55128;50.230;18.944;2023-04-28T06:17:03;98881.84;;;10.78;47.12
63535;BME280;55128;50.230;18.944;2023-04-28T06:22:03;98880.53;;;10.88;46.01
63535;BME280;55128;50.230;18.944;2023-04-28T06:27:04;98887.84;;;11.04;45.01
63535;BME280;55128;50.230;18.944;2023-04-28T06:32:05;98884.03;;;11.30;43.93
63535;BME280;55128;50.230;18.944;2023-04-28T06:37:05;98878.59;;;11.71;43.77
63535;BME280;55128;50.230;18.944;2023-04-28T06:42:06;98885.81;;;12.26;42.49
63535;BME280;55128;50.230;18.944;2023-04-28T06:47:06;98880.44;;;12.45;41.39
63535;BME280;55128;50.230;18.944;2023-04-28T06:52:06;98877.16;;;14.72;40.34
63535;BME280;55128;50.230;18.944;2023-04-28T06:57:07;98881.09;;;16.66;36.50
63535;BME280;55128;50.230;18.944;2023-04-28T07:02:07;98873.03;;;18.33;31.82
63535;BME280;55128;50.230;18.944;2023-04-28T07:07:08;98870.69;;;19.00;29.28
63535;BME280;55128;50.230;18.944;2023-04-28T07:12:09;98869.19;;;19.54;27.07
63535;BME280;55128;50.230;18.944;2023-04-28T07:17:09;98863.69;;;20.67;27.08
63535;BME280;55128;50.230;18.944;2023-04-28T07:22:09;98859.66;;;20.62;24.88
63535;BME280;55128;50.230;18.944;2023-04-28T07:27:10;98852.00;;;22.12;23.12
63535;BME280;55128;50.230;18.944;2023-04-28T07:32:10;98859.59;;;21.88;22.17
63535;BME280;55128;50.230;18.944;2023-04-28T07:37:10;98850.69;;;22.86;21.78
63535;BME280;55128;50.230;18.944;2023-04-28T07:42:11;98846.25;;;23.24;21.50
63535;BME280;55128;50.230;18.944;2023-04-28T07:47:12;98846.28;;;24.27;19.86
63535;BME280;55128;50.230;18.944;2023-04-28T07:52:12;98849.66;;;25.89;17.39
63535;BME280;55128;50.230;18.944;2023-04-28T07:57:13;98847.75;;;24.39;19.02
63535;BME280;55128;50.230;18.944;2023-04-28T08:02:13;98833.47;;;23.54;19.71
63535;BME280;55128;50.230;18.944;2023-04-28T08:07:14;98830.94;;;23.43;18.78
63535;BME280;55128;50.230;18.944;2023-04-28T08:12:14;98833.03;;;25.14;18.00
63535;BME280;55128;50.230;18.944;2023-04-28T08:17:16;98821.13;;;23.79;18.77
63535;BME280;55128;50.230;18.944;2023-04-28T08:22:17;98825.19;;;25.29;17.22
63535;BME280;55128;50.230;18.944;2023-04-28T08:27:17;98818.63;;;25.74;16.74
63535;BME280;55128;50.230;18.944;2023-04-28T08:32:18;98814.44;;;25.53;16.53
63535;BME280;55128;50.230;18.944;2023-04-28T08:37:18;98808.00;;;26.40;14.86
63535;BME280;55128;50.230;18.944;2023-04-28T08:42:19;98801.44;;;27.00;15.59
63535;BME280;55128;50.230;18.944;2023-04-28T08:47:20;98812.38;;;28.11;13.91
63535;BME280;55128;50.230;18.944;2023-04-28T08:52:22;98799.22;;;27.03;15.03
63535;BME280;55128;50.230;18.944;2023-04-28T08:57:26;98798.63;;;28.05;14.60
63535;BME280;55128;50.230;18.944;2023-04-28T09:02:29;98797.16;;;27.05;15.18
63535;BME280;55128;50.230;18.944;2023-04-28T09:07:30;98787.84;;;25.13;16.76
63535;BME280;55128;50.230;18.944;2023-04-28T09:12:36;98782.22;;;27.65;15.34
63535;BME280;55128;50.230;18.944;2023-04-28T09:17:48;98781.91;;;28.31;14.99
63535;BME280;55128;50.230;18.944;2023-04-28T09:22:50;98781.78;;;29.46;14.13
63535;BME280;55128;50.230;18.944;2023-04-28T09:27:51;98782.81;;;27.92;14.79
63535;BME280;55128;50.230;18.944;2023-04-28T09:33:04;98767.44;;;28.22;14.34
63535;BME280;55128;50.230;18.944;2023-04-28T09:38:05;98766.34;;;27.69;15.58
63535;BME280;55128;50.230;18.944;2023-04-28T09:43:21;98759.59;;;27.48;16.23
63535;BME280;55128;50.230;18.944;2023-04-28T09:48:33;98751.94;;;27.91;15.21
63535;BME280;55128;50.230;18.944;2023-04-28T09:53:34;98739.13;;;25.46;16.69
63535;BME280;55128;50.230;18.944;2023-04-28T09:58:39;98723.69;;;24.50;18.07
63535;BME280;55128;50.230;18.944;2023-04-28T10:03:40;98720.47;;;22.70;20.00
63535;BME280;55128;50.230;18.944;2023-04-28T10:08:40;98708.28;;;22.27;20.43
63535;BME280;55128;50.230;18.944;2023-04-28T10:13:42;98709.09;;;22.18;20.28
63535;BME280;55128;50.230;18.944;2023-04-28T10:18:45;98701.09;;;20.96;21.63
63535;BME280;55128;50.230;18.944;2023-04-28T10:28:59;98700.78;;;19.94;23.13
63535;BME280;55128;50.230;18.944;2023-04-28T10:34:22;98686.56;;;19.26;23.49
63535;BME280;55128;50.230;18.944;2023-04-28T10:39:23;98673.13;;;19.14;24.42
63535;BME280;55128;50.230;18.944;2023-04-28T10:50:03;98657.91;;;19.47;24.32
63535;BME280;55128;50.230;18.944;2023-04-28T10:55:32;98649.28;;;19.65;24.74
63535;BME280;55128;50.230;18.944;2023-04-28T11:00:35;98641.84;;;19.57;24.35
63535;BME280;55128;50.230;18.944;2023-04-28T11:05:36;98641.88;;;19.46;24.00
63535;BME280;55128;50.230;18.944;2023-04-28T11:11:28;98635.16;;;19.40;24.49
63535;BME280;55128;50.230;18.944;2023-04-28T11:16:23;98627.88;;;19.52;23.30
63535;BME280;55128;50.230;18.944;2023-04-28T11:21:25;98612.84;;;18.72;23.90
63535;BME280;55128;50.230;18.944;2023-04-28T11:26:27;98611.13;;;18.93;24.38
63535;BME280;55128;50.230;18.944;2023-04-28T11:31:27;98603.25;;;18.22;24.34
63535;BME280;55128;50.230;18.944;2023-04-28T11:41:33;98605.00;;;18.57;24.46
63535;BME280;55128;50.230;18.944;2023-04-28T11:46:33;98592.22;;;18.03;24.48
63535;BME280;55128;50.230;18.944;2023-04-28T11:51:36;98598.50;;;19.28;24.64
63535;BME280;55128;50.230;18.944;2023-04-28T11:56:38;98586.78;;;19.50;24.76
63535;BME280;55128;50.230;18.944;2023-04-28T12:01:48;98593.78;;;18.86;24.46
63535;BME280;55128;50.230;18.944;2023-04-28T12:06:57;98584.94;;;18.61;24.58
63535;BME280;55128;50.230;18.944;2023-04-28T12:12:00;98581.50;;;18.14;25.13
63535;BME280;55128;50.230;18.944;2023-04-28T12:17:02;98563.66;;;18.02;24.61
63535;BME280;55128;50.230;18.944;2023-04-28T12:22:04;98562.47;;;18.85;25.33
63535;BME280;55128;50.230;18.944;2023-04-28T12:27:19;98552.28;;;19.97;25.28
63535;BME280;55128;50.230;18.944;2023-04-28T12:32:40;98547.06;;;19.63;24.17
63535;BME280;55128;50.230;18.944;2023-04-28T12:37:44;98533.81;;;19.71;23.77
63535;BME280;55128;50.230;18.944;2023-04-28T12:42:44;98532.75;;;19.30;24.48
63535;BME280;55128;50.230;18.944;2023-04-28T12:47:45;98525.25;;;19.13;23.60
63535;BME280;55128;50.230;18.944;2023-04-28T12:52:46;98517.84;;;18.60;24.35
63535;BME280;55128;50.230;18.944;2023-04-28T12:57:46;98508.09;;;18.59;25.12
63535;BME280;55128;50.230;18.944;2023-04-28T13:02:47;98502.13;;;18.21;24.92
63535;BME280;55128;50.230;18.944;2023-04-28T13:07:47;98496.63;;;18.00;26.17
63535;BME280;55128;50.230;18.944;2023-04-28T13:12:49;98491.13;;;18.47;25.12
63535;BME280;55128;50.230;18.944;2023-04-28T13:17:49;98482.50;;;18.87;24.99
63535;BME280;55128;50.230;18.944;2023-04-28T13:22:50;98485.47;;;19.16;24.79
63535;BME280;55128;50.230;18.944;2023-04-28T13:27:51;98480.13;;;19.37;24.39
63535;BME280;55128;50.230;18.944;2023-04-28T13:32:51;98467.97;;;19.43;24.49
63535;BME280;55128;50.230;18.944;2023-04-28T13:37:51;98465.88;;;19.68;24.46
63535;BME280;55128;50.230;18.944;2023-04-28T13:43:00;98459.38;;;19.49;23.86
63535;BME280;55128;50.230;18.944;2023-04-28T13:48:00;98455.53;;;19.31;24.63
63535;BME280;55128;50.230;18.944;2023-04-28T13:53:02;98447.28;;;18.90;23.85
63535;BME280;55128;50.230;18.944;2023-04-28T13:58:03;98445.56;;;18.78;24.90
63535;BME280;55128;50.230;18.944;2023-04-28T14:03:06;98444.53;;;18.46;25.11
63535;BME280;55128;50.230;18.944;2023-04-28T14:08:07;98443.94;;;18.32;26.03
63535;BME280;55128;50.230;18.944;2023-04-28T14:13:10;98437.19;;;18.49;25.19
63535;BME280;55128;50.230;18.944;2023-04-28T14:18:12;98438.94;;;18.38;25.37
63535;BME280;55128;50.230;18.944;2023-04-28T14:23:12;98426.03;;;18.21;26.16
63535;BME280;55128;50.230;18.944;2023-04-28T14:28:14;98418.00;;;18.64;25.96
63535;BME280;55128;50.230;18.944;2023-04-28T14:33:15;98418.81;;;19.09;25.78
63535;BME280;55128;50.230;18.944;2023-04-28T14:38:15;98413.19;;;19.12;25.74
63535;BME280;55128;50.230;18.944;2023-04-28T14:43:16;98413.13;;;19.02;25.20
63535;BME280;55128;50.230;18.944;2023-04-28T14:48:16;98407.66;;;18.92;25.30
63535;BME280;55128;50.230;18.944;2023-04-28T14:53:16;98413.97;;;19.02;25.80
63535;BME280;55128;50.230;18.944;2023-04-28T14:58:17;98410.84;;;18.86;26.60
63535;BME280;55128;50.230;18.944;2023-04-28T15:03:21;98410.13;;;19.16;26.22
63535;BME280;55128;50.230;18.944;2023-04-28T15:08:23;98405.56;;;18.96;25.61
63535;BME280;55128;50.230;18.944;2023-04-28T15:13:23;98406.19;;;18.77;25.79
63535;BME280;55128;50.230;18.944;2023-04-28T15:18:24;98401.69;;;18.77;26.23
63535;BME280;55128;50.230;18.944;2023-04-28T15:23:24;98400.03;;;18.54;26.05
63535;BME280;55128;50.230;18.944;2023-04-28T15:28:25;98389.81;;;18.48;25.64
63535;BME280;55128;50.230;18.944;2023-04-28T15:33:27;98378.38;;;18.67;26.54
63535;BME280;55128;50.230;18.944;2023-04-28T15:38:27;98382.00;;;18.77;26.01
63535;BME280;55128;50.230;18.944;2023-04-28T15:43:30;98371.88;;;18.37;26.58
63535;BME280;55128;50.230;18.944;2023-04-28T15:48:30;98379.00;;;18.26;26.46
63535;BME280;55128;50.230;18.944;2023-04-28T15:53:31;98359.06;;;18.61;26.39
63535;BME280;55128;50.230;18.944;2023-04-28T15:58:32;98351.09;;;18.39;27.69
63535;BME280;55128;50.230;18.944;2023-04-28T16:03:32;98359.00;;;17.97;27.24
63535;BME280;55128;50.230;18.944;2023-04-28T16:08:33;98358.13;;;18.19;28.22
63535;BME280;55128;50.230;18.944;2023-04-28T16:13:34;98350.41;;;18.14;27.89
63535;BME280;55128;50.230;18.944;2023-04-28T16:18:36;98349.81;;;18.11;28.71
63535;BME280;55128;50.230;18.944;2023-04-28T16:23:36;98345.78;;;18.05;28.86
63535;BME280;55128;50.230;18.944;2023-04-28T16:28:36;98341.63;;;18.12;28.79
63535;BME280;55128;50.230;18.944;2023-04-28T16:33:37;98340.91;;;17.76;28.17
63535;BME280;55128;50.230;18.944;2023-04-28T16:38:37;98336.16;;;17.46;28.65
63535;BME280;55128;50.230;18.944;2023-04-28T16:43:38;98329.19;;;17.32;28.80
63535;BME280;55128;50.230;18.944;2023-04-28T16:48:38;98331.03;;;17.32;29.66
63535;BME280;55128;50.230;18.944;2023-04-28T16:53:39;98318.94;;;17.37;30.39
63535;BME280;55128;50.230;18.944;2023-04-28T16:58:39;98325.53;;;17.22;29.50
63535;BME280;55128;50.230;18.944;2023-04-28T17:03:39;98325.78;;;16.83;30.62
63535;BME280;55128;50.230;18.944;2023-04-28T17:08:40;98315.88;;;16.73;30.82
63535;BME280;55128;50.230;18.944;2023-04-28T17:13:41;98319.94;;;16.54;31.34
63535;BME280;55128;50.230;18.944;2023-04-28T17:18:41;98313.03;;;16.63;31.89
63535;BME280;55128;50.230;18.944;2023-04-28T17:23:42;98319.16;;;16.65;33.33
63535;BME280;55128;50.230;18.944;2023-04-28T17:28:42;98325.94;;;16.33;33.89
63535;BME280;55128;50.230;18.944;2023-04-28T17:33:43;98331.25;;;16.22;34.79
63535;BME280;55128;50.230;18.944;2023-04-28T17:38:43;98339.03;;;16.25;34.75
63535;BME280;55128;50.230;18.944;2023-04-28T17:43:45;98328.88;;;16.18;35.35
63535;BME280;55128;50.230;18.944;2023-04-28T17:48:45;98338.59;;;16.07;36.08
63535;BME280;55128;50.230;18.944;2023-04-28T17:53:45;98336.69;;;15.97;36.07
63535;BME280;55128;50.230;18.944;2023-04-28T17:58:47;98332.66;;;15.78;36.49
63535;BME280;55128;50.230;18.944;2023-04-28T18:03:48;98339.59;;;15.93;36.14
63535;BME280;55128;50.230;18.944;2023-04-28T18:08:48;98343.56;;;15.88;36.36
63535;BME280;55128;50.230;18.944;2023-04-28T18:13:49;98342.94;;;15.59;36.98
63535;BME280;55128;50.230;18.944;2023-04-28T18:18:49;98348.84;;;15.64;36.64
63535;BME280;55128;50.230;18.944;2023-04-28T18:23:49;98349.38;;;15.43;37.58
63535;BME280;55128;50.230;18.944;2023-04-28T18:28:50;98348.66;;;15.41;37.78
63535;BME280;55128;50.230;18.944;2023-04-28T18:33:51;98359.34;;;15.28;38.39
63535;BME280;55128;50.230;18.944;2023-04-28T18:38:51;98356.31;;;15.20;38.62
63535;BME280;55128;50.230;18.944;2023-04-28T18:43:51;98353.22;;;15.13;38.64
63535;BME280;55128;50.230;18.944;2023-04-28T18:48:54;98355.44;;;14.94;39.11
63535;BME280;55128;50.230;18.944;2023-04-28T18:53:54;98357.25;;;14.81;38.73
63535;BME280;55128;50.230;18.944;2023-04-28T18:58:55;98365.69;;;14.74;39.47
63535;BME280;55128;50.230;18.944;2023-04-28T19:03:56;98376.06;;;14.52;41.04
63535;BME280;55128;50.230;18.944;2023-04-28T19:08:56;98366.16;;;14.12;40.85
63535;BME280;55128;50.230;18.944;2023-04-28T19:13:57;98357.25;;;14.26;42.21
63535;BME280;55128;50.230;18.944;2023-04-28T19:18:57;98369.84;;;14.24;41.80
63535;BME280;55128;50.230;18.944;2023-04-28T19:23:58;98381.34;;;14.12;41.48
63535;BME280;55128;50.230;18.944;2023-04-28T19:28:58;98380.19;;;14.02;42.29
63535;BME280;55128;50.230;18.944;2023-04-28T19:33:58;98368.22;;;13.80;41.81
63535;BME280;55128;50.230;18.944;2023-04-28T19:38:59;98363.47;;;13.56;42.53
63535;BME280;55128;50.230;18.944;2023-04-28T19:43:59;98361.41;;;13.33;43.24
63535;BME280;55128;50.230;18.944;2023-04-28T19:49:00;98363.72;;;13.09;45.22
63535;BME280;55128;50.230;18.944;2023-04-28T19:54:01;98359.19;;;12.80;45.51
63535;BME280;55128;50.230;18.944;2023-04-28T19:59:01;98354.34;;;12.57;46.54
63535;BME280;55128;50.230;18.944;2023-04-28T20:04:02;98348.81;;;12.14;46.30
63535;BME280;55128;50.230;18.944;2023-04-28T20:09:02;98347.66;;;12.03;47.16
63535;BME280;55128;50.230;18.944;2023-04-28T20:14:04;98346.84;;;11.70;48.30
63535;BME280;55128;50.230;18.944;2023-04-28T20:19:04;98347.06;;;11.65;48.50
63535;BME280;55128;50.230;18.944;2023-04-28T20:24:05;98347.66;;;11.54;49.32
63535;BME280;55128;50.230;18.944;2023-04-28T20:29:06;98346.00;;;11.36;50.17
63535;BME280;55128;50.230;18.944;2023-04-28T20:34:06;98337.91;;;11.21;49.89
63535;BME280;55128;50.230;18.944;2023-04-28T20:39:07;98347.28;;;11.11;49.72
63535;BME280;55128;50.230;18.944;2023-04-28T20:44:09;98353.50;;;10.94;51.34
63535;BME280;55128;50.230;18.944;2023-04-28T20:49:12;98345.63;;;10.75;51.89
63535;BME280;55128;50.230;18.944;2023-04-28T20:54:12;98338.69;;;10.55;53.12
63535;BME280;55128;50.230;18.944;2023-04-28T20:59:13;98338.75;;;10.36;54.52
63535;BME280;55128;50.230;18.944;2023-04-28T21:04:13;98336.31;;;10.31;54.35
63535;BME280;55128;50.230;18.944;2023-04-28T21:09:14;98328.47;;;10.28;54.53
63535;BME280;55128;50.230;18.944;2023-04-28T21:14:14;98327.78;;;10.25;54.32
63535;BME280;55128;50.230;18.944;2023-04-28T21:19:15;98329.56;;;10.24;54.48
63535;BME280;55128;50.230;18.944;2023-04-28T21:24:16;98326.31;;;10.00;54.32
63535;BME280;55128;50.230;18.944;2023-04-28T21:29:16;98319.88;;;9.87;55.42
63535;BME280;55128;50.230;18.944;2023-04-28T21:34:17;98311.00;;;9.88;55.45
63535;BME280;55128;50.230;18.944;2023-04-28T21:39:18;98318.72;;;9.92;55.59
63535;BME280;55128;50.230;18.944;2023-04-28T21:44:18;98306.69;;;10.04;56.03
63535;BME280;55128;50.230;18.944;2023-04-28T21:49:18;98312.59;;;10.09;54.84
63535;BME280;55128;50.230;18.944;2023-04-28T21:54:19;98311.28;;;10.01;55.70
63535;BME280;55128;50.230;18.944;2023-04-28T21:59:19;98302.94;;;10.08;55.55
63535;BME280;55128;50.230;18.944;2023-04-28T22:04:20;98295.34;;;10.01;55.00
63535;BME280;55128;50.230;18.944;2023-04-28T22:09:20;98305.66;;;10.07;55.02
63535;BME280;55128;50.230;18.944;2023-04-28T22:14:21;98305.13;;;10.18;55.62
63535;BME280;55128;50.230;18.944;2023-04-28T22:19:21;98299.19;;;10.12;55.91
63535;BME280;55128;50.230;18.944;2023-04-28T22:24:22;98294.47;;;10.19;55.75
63535;BME280;55128;50.230;18.944;2023-04-28T22:29:22;98292.47;;;10.23;55.70
63535;BME280;55128;50.230;18.944;2023-04-28T22:34:23;98289.69;;;10.26;54.68
63535;BME280;55128;50.230;18.944;2023-04-28T22:39:23;98283.84;;;10.19;54.83
63535;BME280;55128;50.230;18.944;2023-04-28T22:44:24;98284.38;;;10.26;55.53
63535;BME280;55128;50.230;18.944;2023-04-28T22:49:24;98276.06;;;10.34;55.33
63535;BME280;55128;50.230;18.944;2023-04-28T22:54:27;98279.22;;;10.42;55.31
63535;BME280;55128;50.230;18.944;2023-04-28T22:59:28;98280.69;;;10.47;56.10
63535;BME280;55128;50.230;18.944;2023-04-28T23:04:28;98276.59;;;10.58;54.94
63535;BME280;55128;50.230;18.944;2023-04-28T23:09:28;98273.81;;;10.61;55.42
63535;BME280;55128;50.230;18.944;2023-04-28T23:14:31;98272.25;;;10.57;55.60
63535;BME280;55128;50.230;18.944;2023-04-28T23:19:31;98271.63;;;10.52;55.77
63535;BME280;55128;50.230;18.944;2023-04-28T23:24:35;98265.53;;;10.49;55.32
63535;BME280;55128;50.230;18.944;2023-04-28T23:29:37;98260.22;;;10.49;54.39
63535;BME280;55128;50.230;18.944;2023-04-28T23:34:37;98249.91;;;10.43;54.82
63535;BME280;55128;50.230;18.944;2023-04-28T23:39:40;98256.34;;;10.57;54.53
63535;BME280;55128;50.230;18.944;2023-04-28T23:44:41;98245.06;;;10.69;53.66
63535;BME280;55128;50.230;18.944;2023-04-28T23:49:41;98233.03;;;10.62;54.57
63535;BME280;55128;50.230;18.944;2023-04-28T23:54:41;98238.72;;;10.72;53.87
63535;BME280;55128;50.230;18.944;2023-04-28T23:59:42;98233.50;;;10.70;53.68
